Terminal Aerodrome Forecast
Issued by NWS

Home | Current Version | Previous Version | Text Only | Print | Product List | Glossary On
Versions: 1 2 3 4 5 6 7 8 9 10 11 12 13 14 15 16 17 18 19 20 21 22 23 24 25 26
029
FTUS43 KDLH 261738
TAFHYR
TAF
KHYR 261738Z 2618/2718 23010KT P6SM SCT030
     FM262100 24010G18KT P6SM SCT040
     FM270100 VRB04KT P6SM SCT080
     FM270600 VRB03KT 5SM BR VCSH SCT010 BKN060
      TEMPO 2708/2712 1SM BR BKN012
     FM271400 14008KT 6SM -RA BR BKN020 OVC035=

USA.gov is the U.S. government's official web portal to all federal, state and local government web resources and services.